sensor_id;sensor_type;location;lat;lon;timestamp;pressure;altitude;pressure_sealevel;temperature;humidity
51147;BME280;37207;53.060;18.726;2022-10-31T00:01:53;101066.02;;;10.14;91.59
51147;BME280;37207;53.060;18.726;2022-10-31T00:04:19;101067.55;;;10.15;91.63
51147;BME280;37207;53.060;18.726;2022-10-31T00:06:46;101062.15;;;10.14;91.62
51147;BME280;37207;53.060;18.726;2022-10-31T00:09:13;101060.44;;;10.14;91.65
51147;BME280;37207;53.060;18.726;2022-10-31T00:11:39;101056.81;;;10.13;91.67
51147;BME280;37207;53.060;18.726;2022-10-31T00:14:06;101057.23;;;10.15;91.83
51147;BME280;37207;53.060;18.726;2022-10-31T00:16:33;101055.86;;;10.16;91.86
51147;BME280;37207;53.060;18.726;2022-10-31T00:19:02;101053.13;;;10.17;92.02
51147;BME280;37207;53.060;18.726;2022-10-31T00:21:33;101050.27;;;10.17;92.08
51147;BME280;37207;53.060;18.726;2022-10-31T00:24:03;101047.67;;;10.19;92.33
51147;BME280;37207;53.060;18.726;2022-10-31T00:26:33;101049.32;;;10.21;92.29
51147;BME280;37207;53.060;18.726;2022-10-31T00:29:00;101047.27;;;10.22;92.31
51147;BME280;37207;53.060;18.726;2022-10-31T00:31:27;101046.94;;;10.25;92.54
51147;BME280;37207;53.060;18.726;2022-10-31T00:33:55;101047.14;;;10.28;92.56
51147;BME280;37207;53.060;18.726;2022-10-31T00:36:22;101051.32;;;10.31;92.60
51147;BME280;37207;53.060;18.726;2022-10-31T00:38:48;101050.52;;;10.34;92.83
51147;BME280;37207;53.060;18.726;2022-10-31T00:41:16;101052.75;;;10.37;92.85
51147;BME280;37207;53.060;18.726;2022-10-31T00:43:43;101047.51;;;10.39;92.87
51147;BME280;37207;53.060;18.726;2022-10-31T00:46:11;101047.59;;;10.41;92.96
51147;BME280;37207;53.060;18.726;2022-10-31T00:48:38;101045.39;;;10.44;92.99
51147;BME280;37207;53.060;18.726;2022-10-31T00:51:05;101045.73;;;10.46;92.98
51147;BME280;37207;53.060;18.726;2022-10-31T00:53:32;101044.09;;;10.47;93.17
51147;BME280;37207;53.060;18.726;2022-10-31T00:56:03;101039.98;;;10.47;93.27
51147;BME280;37207;53.060;18.726;2022-10-31T00:58:29;101035.54;;;10.49;93.25
51147;BME280;37207;53.060;18.726;2022-10-31T01:00:56;101039.05;;;10.51;93.28
51147;BME280;37207;53.060;18.726;2022-10-31T01:03:25;101036.59;;;10.53;93.34
51147;BME280;37207;53.060;18.726;2022-10-31T01:08:26;101033.07;;;10.57;93.41
51147;BME280;37207;53.060;18.726;2022-10-31T01:11:04;101037.13;;;10.57;93.43
51147;BME280;37207;53.060;18.726;2022-10-31T01:13:33;101033.42;;;10.58;93.40
51147;BME280;37207;53.060;18.726;2022-10-31T01:16:02;101032.25;;;10.59;93.39
51147;BME280;37207;53.060;18.726;2022-10-31T01:18:30;101028.81;;;10.61;93.46
51147;BME280;37207;53.060;18.726;2022-10-31T01:21:12;101030.08;;;10.61;93.56
51147;BME280;37207;53.060;18.726;2022-10-31T01:23:39;101027.97;;;10.61;93.51
51147;BME280;37207;53.060;18.726;2022-10-31T01:26:09;101026.33;;;10.62;93.36
51147;BME280;37207;53.060;18.726;2022-10-31T01:28:38;101028.95;;;10.63;93.57
51147;BME280;37207;53.060;18.726;2022-10-31T01:31:10;101030.46;;;10.63;93.42
51147;BME280;37207;53.060;18.726;2022-10-31T01:33:40;101031.44;;;10.64;93.40
51147;BME280;37207;53.060;18.726;2022-10-31T01:38:46;101027.55;;;10.63;93.47
51147;BME280;37207;53.060;18.726;2022-10-31T01:41:23;101025.52;;;10.62;93.44
51147;BME280;37207;53.060;18.726;2022-10-31T01:43:53;101031.31;;;10.60;93.31
51147;BME280;37207;53.060;18.726;2022-10-31T01:46:27;101037.30;;;10.58;93.41
51147;BME280;37207;53.060;18.726;2022-10-31T01:48:57;101040.70;;;10.56;93.35
51147;BME280;37207;53.060;18.726;2022-10-31T01:51:30;101040.75;;;10.54;93.46
51147;BME280;37207;53.060;18.726;2022-10-31T01:54:00;101043.27;;;10.51;93.65
51147;BME280;37207;53.060;18.726;2022-10-31T01:56:28;101039.02;;;10.49;93.73
51147;BME280;37207;53.060;18.726;2022-10-31T01:58:54;101039.60;;;10.49;93.83
51147;BME280;37207;53.060;18.726;2022-10-31T02:01:22;101038.87;;;10.47;93.84
51147;BME280;37207;53.060;18.726;2022-10-31T02:03:49;101038.41;;;10.47;93.82
51147;BME280;37207;53.060;18.726;2022-10-31T02:06:21;101041.79;;;10.47;93.85
51147;BME280;37207;53.060;18.726;2022-10-31T02:08:51;101044.23;;;10.47;93.73
51147;BME280;37207;53.060;18.726;2022-10-31T02:11:17;101039.66;;;10.47;93.80
51147;BME280;37207;53.060;18.726;2022-10-31T02:13:44;101041.99;;;10.48;93.85
51147;BME280;37207;53.060;18.726;2022-10-31T02:16:13;101051.26;;;10.49;93.84
51147;BME280;37207;53.060;18.726;2022-10-31T02:18:40;101051.13;;;10.50;93.99
51147;BME280;37207;53.060;18.726;2022-10-31T02:21:21;101048.42;;;10.50;93.93
51147;BME280;37207;53.060;18.726;2022-10-31T02:33:59;101055.42;;;10.49;93.97
51147;BME280;37207;53.060;18.726;2022-10-31T02:39:20;101060.63;;;10.52;94.12
51147;BME280;37207;53.060;18.726;2022-10-31T02:41:54;101059.23;;;10.53;94.11
51147;BME280;37207;53.060;18.726;2022-10-31T02:44:45;101061.46;;;10.55;94.10
51147;BME280;37207;53.060;18.726;2022-10-31T02:47:16;101065.81;;;10.56;94.20
51147;BME280;37207;53.060;18.726;2022-10-31T02:52:13;101072.59;;;10.57;94.20
51147;BME280;37207;53.060;18.726;2022-10-31T02:54:40;101076.09;;;10.58;94.26
51147;BME280;37207;53.060;18.726;2022-10-31T02:57:08;101075.80;;;10.59;94.29
51147;BME280;37207;53.060;18.726;2022-10-31T02:59:35;101080.49;;;10.60;94.30
51147;BME280;37207;53.060;18.726;2022-10-31T03:02:07;101082.52;;;10.61;94.43
51147;BME280;37207;53.060;18.726;2022-10-31T03:04:43;101084.86;;;10.63;94.41
51147;BME280;37207;53.060;18.726;2022-10-31T03:12:40;101085.85;;;10.66;94.52
51147;BME280;37207;53.060;18.726;2022-10-31T03:15:24;101090.14;;;10.67;94.60
51147;BME280;37207;53.060;18.726;2022-10-31T03:17:55;101086.99;;;10.69;94.58
51147;BME280;37207;53.060;18.726;2022-10-31T03:20:30;101093.80;;;10.70;94.56
51147;BME280;37207;53.060;18.726;2022-10-31T03:22:59;101096.29;;;10.71;94.61
51147;BME280;37207;53.060;18.726;2022-10-31T03:25:27;101097.66;;;10.72;94.56
51147;BME280;37207;53.060;18.726;2022-10-31T03:27:56;101094.30;;;10.72;94.58
51147;BME280;37207;53.060;18.726;2022-10-31T03:30:24;101089.59;;;10.73;94.58
51147;BME280;37207;53.060;18.726;2022-10-31T03:32:55;101089.69;;;10.74;94.45
51147;BME280;37207;53.060;18.726;2022-10-31T03:35:23;101083.41;;;10.73;94.31
51147;BME280;37207;53.060;18.726;2022-10-31T03:37:52;101089.42;;;10.72;94.50
51147;BME280;37207;53.060;18.726;2022-10-31T03:40:20;101088.56;;;10.72;94.45
51147;BME280;37207;53.060;18.726;2022-10-31T03:42:52;101091.65;;;10.70;94.36
51147;BME280;37207;53.060;18.726;2022-10-31T03:45:23;101084.54;;;10.69;94.37
51147;BME280;37207;53.060;18.726;2022-10-31T03:47:50;101085.27;;;10.68;94.41
51147;BME280;37207;53.060;18.726;2022-10-31T03:50:17;101084.61;;;10.68;94.55
51147;BME280;37207;53.060;18.726;2022-10-31T03:53:05;101090.09;;;10.70;94.72
51147;BME280;37207;53.060;18.726;2022-10-31T03:55:42;101093.48;;;10.72;94.76
51147;BME280;37207;53.060;18.726;2022-10-31T03:58:17;101099.52;;;10.72;94.68
51147;BME280;37207;53.060;18.726;2022-10-31T04:00:46;101102.45;;;10.72;94.66
51147;BME280;37207;53.060;18.726;2022-10-31T04:03:21;101107.26;;;10.72;94.68
51147;BME280;37207;53.060;18.726;2022-10-31T04:05:49;101106.48;;;10.73;94.64
51147;BME280;37207;53.060;18.726;2022-10-31T04:08:19;101106.38;;;10.73;94.67
51147;BME280;37207;53.060;18.726;2022-10-31T04:10:48;101106.88;;;10.73;94.69
51147;BME280;37207;53.060;18.726;2022-10-31T04:13:19;101107.94;;;10.73;94.86
51147;BME280;37207;53.060;18.726;2022-10-31T04:15:56;101110.39;;;10.73;94.70
51147;BME280;37207;53.060;18.726;2022-10-31T04:18:23;101106.31;;;10.73;94.67
51147;BME280;37207;53.060;18.726;2022-10-31T04:20:58;101109.04;;;10.73;94.79
51147;BME280;37207;53.060;18.726;2022-10-31T04:23:25;101101.71;;;10.71;94.85
51147;BME280;37207;53.060;18.726;2022-10-31T04:25:58;101101.13;;;10.72;94.84
51147;BME280;37207;53.060;18.726;2022-10-31T04:28:24;101099.42;;;10.73;94.93
51147;BME280;37207;53.060;18.726;2022-10-31T04:30:55;101097.56;;;10.73;95.00
51147;BME280;37207;53.060;18.726;2022-10-31T04:33:22;101093.52;;;10.75;95.06
51147;BME280;37207;53.060;18.726;2022-10-31T04:35:48;101094.68;;;10.75;95.07
51147;BME280;37207;53.060;18.726;2022-10-31T04:38:15;101095.70;;;10.76;95.07
51147;BME280;37207;53.060;18.726;2022-10-31T04:40:42;101096.94;;;10.77;95.11
51147;BME280;37207;53.060;18.726;2022-10-31T04:43:29;101093.94;;;10.78;95.25
51147;BME280;37207;53.060;18.726;2022-10-31T04:45:55;101095.75;;;10.81;95.22
51147;BME280;37207;53.060;18.726;2022-10-31T04:48:22;101088.59;;;10.82;95.23
51147;BME280;37207;53.060;18.726;2022-10-31T04:50:49;101091.37;;;10.83;95.14
51147;BME280;37207;53.060;18.726;2022-10-31T04:53:15;101093.02;;;10.83;95.19
51147;BME280;37207;53.060;18.726;2022-10-31T04:56:01;101091.92;;;10.83;95.23
51147;BME280;37207;53.060;18.726;2022-10-31T04:58:35;101088.89;;;10.82;95.12
51147;BME280;37207;53.060;18.726;2022-10-31T05:01:03;101084.75;;;10.81;95.15
51147;BME280;37207;53.060;18.726;2022-10-31T05:03:30;101078.70;;;10.80;95.37
51147;BME280;37207;53.060;18.726;2022-10-31T05:05:56;101078.83;;;10.81;95.48
51147;BME280;37207;53.060;18.726;2022-10-31T05:08:23;101081.70;;;10.82;95.65
51147;BME280;37207;53.060;18.726;2022-10-31T05:10:50;101078.20;;;10.83;95.65
51147;BME280;37207;53.060;18.726;2022-10-31T05:13:18;101083.75;;;10.84;95.67
51147;BME280;37207;53.060;18.726;2022-10-31T05:16:03;101084.93;;;10.86;95.84
51147;BME280;37207;53.060;18.726;2022-10-31T05:18:58;101087.11;;;10.86;96.08
51147;BME280;37207;53.060;18.726;2022-10-31T05:21:43;101088.64;;;10.90;96.22
51147;BME280;37207;53.060;18.726;2022-10-31T05:24:13;101084.08;;;10.93;96.16
51147;BME280;37207;53.060;18.726;2022-10-31T05:26:46;101080.99;;;10.94;96.23
51147;BME280;37207;53.060;18.726;2022-10-31T05:29:16;101081.25;;;10.97;96.42
51147;BME280;37207;53.060;18.726;2022-10-31T05:31:47;101080.92;;;10.98;96.41
51147;BME280;37207;53.060;18.726;2022-10-31T05:34:37;101085.94;;;11.01;96.51
51147;BME280;37207;53.060;18.726;2022-10-31T05:37:32;101085.73;;;11.03;96.53
51147;BME280;37207;53.060;18.726;2022-10-31T05:40:03;101086.92;;;11.05;96.58
51147;BME280;37207;53.060;18.726;2022-10-31T05:42:30;101088.59;;;11.07;96.57
51147;BME280;37207;53.060;18.726;2022-10-31T05:45:00;101090.05;;;11.09;96.62
51147;BME280;37207;53.060;18.726;2022-10-31T05:47:39;101086.80;;;11.11;96.65
51147;BME280;37207;53.060;18.726;2022-10-31T05:50:28;101087.34;;;11.12;96.69
51147;BME280;37207;53.060;18.726;2022-10-31T05:53:27;101094.58;;;11.15;96.79
51147;BME280;37207;53.060;18.726;2022-10-31T05:55:58;101098.14;;;11.17;96.79
51147;BME280;37207;53.060;18.726;2022-10-31T05:58:29;101098.75;;;11.21;96.83
51147;BME280;37207;53.060;18.726;2022-10-31T06:01:08;101098.55;;;11.23;96.89
51147;BME280;37207;53.060;18.726;2022-10-31T06:03:34;101099.38;;;11.25;97.03
51147;BME280;37207;53.060;18.726;2022-10-31T06:06:03;101106.14;;;11.27;96.92
51147;BME280;37207;53.060;18.726;2022-10-31T06:08:38;101110.14;;;11.29;96.96
51147;BME280;37207;53.060;18.726;2022-10-31T06:11:12;101109.27;;;11.31;97.10
51147;BME280;37207;53.060;18.726;2022-10-31T06:14:01;101109.92;;;11.31;97.08
51147;BME280;37207;53.060;18.726;2022-10-31T06:16:55;101117.81;;;11.33;97.15
51147;BME280;37207;53.060;18.726;2022-10-31T06:19:43;101120.75;;;11.35;96.86
51147;BME280;37207;53.060;18.726;2022-10-31T06:22:15;101123.10;;;11.36;96.98
51147;BME280;37207;53.060;18.726;2022-10-31T06:24:46;101122.27;;;11.38;97.02
51147;BME280;37207;53.060;18.726;2022-10-31T06:27:30;101128.90;;;11.40;96.88
51147;BME280;37207;53.060;18.726;2022-10-31T06:30:02;101135.32;;;11.41;96.82
51147;BME280;37207;53.060;18.726;2022-10-31T06:32:38;101135.72;;;11.43;96.72
51147;BME280;37207;53.060;18.726;2022-10-31T06:35:07;101137.58;;;11.43;96.65
51147;BME280;37207;53.060;18.726;2022-10-31T06:37:38;101139.99;;;11.42;96.58
51147;BME280;37207;53.060;18.726;2022-10-31T06:40:26;101139.65;;;11.42;96.55
51147;BME280;37207;53.060;18.726;2022-10-31T06:43:28;101139.44;;;11.43;96.61
51147;BME280;37207;53.060;18.726;2022-10-31T06:46:17;101142.73;;;11.44;96.70
51147;BME280;37207;53.060;18.726;2022-10-31T06:48:59;101140.53;;;11.45;96.59
51147;BME280;37207;53.060;18.726;2022-10-31T06:51:48;101143.21;;;11.46;96.41
51147;BME280;37207;53.060;18.726;2022-10-31T06:54:18;101144.94;;;11.47;96.65
51147;BME280;37207;53.060;18.726;2022-10-31T06:56:50;101146.98;;;11.49;96.71
51147;BME280;37207;53.060;18.726;2022-10-31T06:59:19;101145.70;;;11.53;96.73
51147;BME280;37207;53.060;18.726;2022-10-31T07:02:10;101142.39;;;11.54;96.61
51147;BME280;37207;53.060;18.726;2022-10-31T07:04:40;101141.67;;;11.56;96.70
51147;BME280;37207;53.060;18.726;2022-10-31T07:07:12;101142.75;;;11.58;96.70
51147;BME280;37207;53.060;18.726;2022-10-31T07:09:42;101145.95;;;11.60;96.62
51147;BME280;37207;53.060;18.726;2022-10-31T07:12:15;101146.86;;;11.61;96.48
51147;BME280;37207;53.060;18.726;2022-10-31T07:14:51;101144.48;;;11.63;96.51
51147;BME280;37207;53.060;18.726;2022-10-31T07:17:23;101146.71;;;11.64;96.70
51147;BME280;37207;53.060;18.726;2022-10-31T07:19:56;101149.12;;;11.67;96.42
51147;BME280;37207;53.060;18.726;2022-10-31T07:22:36;101147.93;;;11.68;96.58
51147;BME280;37207;53.060;18.726;2022-10-31T07:25:09;101155.55;;;11.69;96.47
51147;BME280;37207;53.060;18.726;2022-10-31T07:28:00;101157.83;;;11.69;96.40
51147;BME280;37207;53.060;18.726;2022-10-31T07:30:30;101161.01;;;11.70;96.55
51147;BME280;37207;53.060;18.726;2022-10-31T07:33:02;101160.19;;;11.72;96.70
51147;BME280;37207;53.060;18.726;2022-10-31T07:35:52;101160.66;;;11.76;96.83
51147;BME280;37207;53.060;18.726;2022-10-31T07:38:24;101161.35;;;11.77;96.74
51147;BME280;37207;53.060;18.726;2022-10-31T07:40:55;101160.98;;;11.80;96.72
51147;BME280;37207;53.060;18.726;2022-10-31T07:43:28;101162.58;;;11.82;96.65
51147;BME280;37207;53.060;18.726;2022-10-31T07:46:16;101173.42;;;11.85;96.62
51147;BME280;37207;53.060;18.726;2022-10-31T07:48:50;101176.70;;;11.84;96.54
51147;BME280;37207;53.060;18.726;2022-10-31T07:51:39;101181.08;;;11.87;96.59
51147;BME280;37207;53.060;18.726;2022-10-31T07:54:27;101182.00;;;11.89;96.60
51147;BME280;37207;53.060;18.726;2022-10-31T07:56:57;101178.95;;;11.90;96.33
51147;BME280;37207;53.060;18.726;2022-10-31T07:59:29;101178.00;;;11.90;96.39
51147;BME280;37207;53.060;18.726;2022-10-31T08:02:00;101181.34;;;11.91;96.45
51147;BME280;37207;53.060;18.726;2022-10-31T08:04:50;101181.96;;;11.93;96.43
51147;BME280;37207;53.060;18.726;2022-10-31T08:07:46;101186.48;;;11.92;96.30
51147;BME280;37207;53.060;18.726;2022-10-31T08:10:17;101190.11;;;11.92;96.48
51147;BME280;37207;53.060;18.726;2022-10-31T08:12:47;101189.03;;;11.94;96.41
51147;BME280;37207;53.060;18.726;2022-10-31T08:15:25;101188.08;;;11.94;96.52
51147;BME280;37207;53.060;18.726;2022-10-31T08:17:55;101191.56;;;11.96;96.61
51147;BME280;37207;53.060;18.726;2022-10-31T08:20:27;101186.70;;;11.98;96.57
51147;BME280;37207;53.060;18.726;2022-10-31T08:22:59;101190.69;;;11.98;96.45
51147;BME280;37207;53.060;18.726;2022-10-31T08:25:32;101192.95;;;11.98;96.25
51147;BME280;37207;53.060;18.726;2022-10-31T08:28:04;101196.21;;;11.97;96.20
51147;BME280;37207;53.060;18.726;2022-10-31T08:30:35;101197.33;;;11.97;96.25
51147;BME280;37207;53.060;18.726;2022-10-31T08:33:26;101198.75;;;11.99;96.45
51147;BME280;37207;53.060;18.726;2022-10-31T08:36:14;101202.89;;;12.00;96.29
51147;BME280;37207;53.060;18.726;2022-10-31T08:39:03;101208.63;;;11.99;96.24
51147;BME280;37207;53.060;18.726;2022-10-31T08:41:33;101206.62;;;11.99;96.44
51147;BME280;37207;53.060;18.726;2022-10-31T08:44:04;101210.77;;;12.00;96.41
51147;BME280;37207;53.060;18.726;2022-10-31T08:46:35;101214.86;;;12.02;96.52
51147;BME280;37207;53.060;18.726;2022-10-31T08:49:07;101219.76;;;12.02;96.27
51147;BME280;37207;53.060;18.726;2022-10-31T08:51:38;101223.98;;;12.02;96.35
51147;BME280;37207;53.060;18.726;2022-10-31T08:54:09;101224.40;;;12.03;96.50
51147;BME280;37207;53.060;18.726;2022-10-31T08:56:59;101224.33;;;12.04;96.45
51147;BME280;37207;53.060;18.726;2022-10-31T08:59:44;101224.08;;;12.07;96.56
51147;BME280;37207;53.060;18.726;2022-10-31T09:02:58;101225.23;;;12.11;96.60
51147;BME280;37207;53.060;18.726;2022-10-31T09:05:29;101224.69;;;12.13;96.51
51147;BME280;37207;53.060;18.726;2022-10-31T09:08:02;101221.67;;;12.16;96.44
51147;BME280;37207;53.060;18.726;2022-10-31T09:10:35;101223.21;;;12.18;96.43
51147;BME280;37207;53.060;18.726;2022-10-31T09:13:07;101222.95;;;12.22;96.43
51147;BME280;37207;53.060;18.726;2022-10-31T09:15:56;101223.63;;;12.25;96.49
51147;BME280;37207;53.060;18.726;2022-10-31T09:18:29;101220.40;;;12.28;96.41
51147;BME280;37207;53.060;18.726;2022-10-31T09:21:03;101214.55;;;12.30;96.16
51147;BME280;37207;53.060;18.726;2022-10-31T09:23:30;101215.39;;;12.32;96.25
51147;BME280;37207;53.060;18.726;2022-10-31T09:25:59;101215.37;;;12.34;96.30
51147;BME280;37207;53.060;18.726;2022-10-31T09:28:41;101214.25;;;12.37;96.32
51147;BME280;37207;53.060;18.726;2022-10-31T09:31:12;101214.69;;;12.39;96.31
51147;BME280;37207;53.060;18.726;2022-10-31T09:34:14;101214.11;;;12.41;95.98
51147;BME280;37207;53.060;18.726;2022-10-31T09:36:45;101208.48;;;12.41;95.88
51147;BME280;37207;53.060;18.726;2022-10-31T09:39:18;101217.41;;;12.42;95.93
51147;BME280;37207;53.060;18.726;2022-10-31T09:41:55;101210.89;;;12.43;95.89
51147;BME280;37207;53.060;18.726;2022-10-31T09:44:31;101214.85;;;12.46;95.92
51147;BME280;37207;53.060;18.726;2022-10-31T09:49:34;101218.34;;;12.52;95.99
51147;BME280;37207;53.060;18.726;2022-10-31T09:52:11;101217.08;;;12.55;95.83
51147;BME280;37207;53.060;18.726;2022-10-31T09:54:45;101224.23;;;12.59;95.92
51147;BME280;37207;53.060;18.726;2022-10-31T09:57:13;101227.79;;;12.60;95.80
51147;BME280;37207;53.060;18.726;2022-10-31T09:59:41;101227.36;;;12.62;95.83
51147;BME280;37207;53.060;18.726;2022-10-31T10:02:14;101228.47;;;12.64;95.80
51147;BME280;37207;53.060;18.726;2022-10-31T10:04:49;101226.42;;;12.66;95.69
51147;BME280;37207;53.060;18.726;2022-10-31T10:18:30;101229.89;;;12.76;95.32
51147;BME280;37207;53.060;18.726;2022-10-31T10:23:49;101228.04;;;12.77;95.23
51147;BME280;37207;53.060;18.726;2022-10-31T10:26:19;101227.00;;;12.78;95.17
51147;BME280;37207;53.060;18.726;2022-10-31T10:28:50;101227.66;;;12.79;95.11
51147;BME280;37207;53.060;18.726;2022-10-31T10:31:22;101222.83;;;12.79;95.15
51147;BME280;37207;53.060;18.726;2022-10-31T10:34:00;101214.82;;;12.80;95.22
51147;BME280;37207;53.060;18.726;2022-10-31T10:39:02;101218.05;;;12.85;95.16
51147;BME280;37207;53.060;18.726;2022-10-31T10:41:31;101216.88;;;12.85;95.00
51147;BME280;37207;53.060;18.726;2022-10-31T10:43:58;101217.70;;;12.86;94.99
51147;BME280;37207;53.060;18.726;2022-10-31T11:03:01;101224.77;;;12.86;94.80
51147;BME280;37207;53.060;18.726;2022-10-31T11:08:01;101225.65;;;12.85;94.85
51147;BME280;37207;53.060;18.726;2022-10-31T11:10:28;101225.06;;;12.86;94.80
51147;BME280;37207;53.060;18.726;2022-10-31T11:12:59;101221.89;;;12.86;94.84
51147;BME280;37207;53.060;18.726;2022-10-31T11:15:27;101215.77;;;12.85;94.75
51147;BME280;37207;53.060;18.726;2022-10-31T11:17:54;101215.29;;;12.87;94.93
51147;BME280;37207;53.060;18.726;2022-10-31T11:20:26;101214.20;;;12.88;94.97
51147;BME280;37207;53.060;18.726;2022-10-31T11:23:00;101217.41;;;12.87;94.67
51147;BME280;37207;53.060;18.726;2022-10-31T11:25:27;101219.48;;;12.84;94.40
51147;BME280;37207;53.060;18.726;2022-10-31T11:28:00;101221.42;;;12.80;94.41
51147;BME280;37207;53.060;18.726;2022-10-31T11:30:27;101218.29;;;12.79;94.65
51147;BME280;37207;53.060;18.726;2022-10-31T11:32:55;101217.45;;;12.81;94.72
51147;BME280;37207;53.060;18.726;2022-10-31T11:35:22;101224.75;;;12.82;94.64
51147;BME280;37207;53.060;18.726;2022-10-31T11:37:51;101223.55;;;12.81;94.70
51147;BME280;37207;53.060;18.726;2022-10-31T11:40:21;101223.09;;;12.81;94.78
51147;BME280;37207;53.060;18.726;2022-10-31T11:42:48;101229.14;;;12.80;94.78
51147;BME280;37207;53.060;18.726;2022-10-31T11:45:17;101228.17;;;12.79;94.69
51147;BME280;37207;53.060;18.726;2022-10-31T11:47:46;101230.55;;;12.79;94.71
51147;BME280;37207;53.060;18.726;2022-10-31T11:50:23;101225.46;;;12.82;94.90
51147;BME280;37207;53.060;18.726;2022-10-31T11:52:51;101228.05;;;12.84;94.89
51147;BME280;37207;53.060;18.726;2022-10-31T11:55:34;101225.14;;;12.85;94.88
51147;BME280;37207;53.060;18.726;2022-10-31T11:58:02;101225.22;;;12.86;94.87
51147;BME280;37207;53.060;18.726;2022-10-31T12:03:11;101221.65;;;12.87;94.84
51147;BME280;37207;53.060;18.726;2022-10-31T12:05:40;101219.16;;;12.89;94.80
51147;BME280;37207;53.060;18.726;2022-10-31T12:08:11;101215.84;;;12.89;94.69
51147;BME280;37207;53.060;18.726;2022-10-31T12:13:56;101209.32;;;12.93;94.86
51147;BME280;37207;53.060;18.726;2022-10-31T12:16:12;101208.43;;;12.95;94.68
51147;BME280;37207;53.060;18.726;2022-10-31T12:18:56;101210.05;;;12.95;94.67
51147;BME280;37207;53.060;18.726;2022-10-31T12:21:28;101209.16;;;12.96;94.44
51147;BME280;37207;53.060;18.726;2022-10-31T12:26:34;101209.61;;;12.92;94.18
51147;BME280;37207;53.060;18.726;2022-10-31T12:31:53;101206.40;;;12.85;94.32
51147;BME280;37207;53.060;18.726;2022-10-31T12:55:38;101221.72;;;12.72;94.54
51147;BME280;37207;53.060;18.726;2022-10-31T12:58:02;101225.02;;;12.70;94.68
51147;BME280;37207;53.060;18.726;2022-10-31T13:00:35;101223.56;;;12.67;94.61
51147;BME280;37207;53.060;18.726;2022-10-31T13:03:21;101224.05;;;12.66;94.78
51147;BME280;37207;53.060;18.726;2022-10-31T13:05:54;101217.82;;;12.62;94.54
51147;BME280;37207;53.060;18.726;2022-10-31T13:08:28;101218.50;;;12.56;94.59
51147;BME280;37207;53.060;18.726;2022-10-31T13:11:58;101220.27;;;12.53;94.71
51147;BME280;37207;53.060;18.726;2022-10-31T13:16:19;101216.84;;;12.52;94.96
51147;BME280;37207;53.060;18.726;2022-10-31T13:18:48;101219.30;;;12.52;94.93
51147;BME280;37207;53.060;18.726;2022-10-31T13:21:25;101216.33;;;12.53;94.96
51147;BME280;37207;53.060;18.726;2022-10-31T13:23:53;101217.23;;;12.52;94.94
51147;BME280;37207;53.060;18.726;2022-10-31T13:31:22;101208.53;;;12.53;95.09
51147;BME280;37207;53.060;18.726;2022-10-31T13:33:50;101207.88;;;12.53;95.10
51147;BME280;37207;53.060;18.726;2022-10-31T13:36:26;101205.97;;;12.54;95.17
51147;BME280;37207;53.060;18.726;2022-10-31T13:41:42;101205.10;;;12.53;95.14
51147;BME280;37207;53.060;18.726;2022-10-31T13:46:46;101205.76;;;12.49;95.01
51147;BME280;37207;53.060;18.726;2022-10-31T13:49:46;101205.23;;;12.49;95.16
51147;BME280;37207;53.060;18.726;2022-10-31T13:54:39;101204.83;;;12.47;95.26
51147;BME280;37207;53.060;18.726;2022-10-31T13:57:06;101203.05;;;12.47;95.36
51147;BME280;37207;53.060;18.726;2022-10-31T13:59:38;101202.91;;;12.45;95.33
51147;BME280;37207;53.060;18.726;2022-10-31T14:02:15;101201.59;;;12.45;95.42
51147;BME280;37207;53.060;18.726;2022-10-31T14:04:49;101199.41;;;12.44;95.54
51147;BME280;37207;53.060;18.726;2022-10-31T14:07:19;101202.23;;;12.44;95.49
51147;BME280;37207;53.060;18.726;2022-10-31T14:09:52;101209.81;;;12.43;95.42
51147;BME280;37207;53.060;18.726;2022-10-31T14:15:05;101211.30;;;12.31;95.35
51147;BME280;37207;53.060;18.726;2022-10-31T14:17:45;101201.91;;;12.29;95.65
51147;BME280;37207;53.060;18.726;2022-10-31T14:22:39;101200.03;;;12.24;95.69
51147;BME280;37207;53.060;18.726;2022-10-31T14:25:25;101197.92;;;12.21;95.75
51147;BME280;37207;53.060;18.726;2022-10-31T14:27:52;101194.33;;;12.19;95.89
51147;BME280;37207;53.060;18.726;2022-10-31T14:30:19;101197.20;;;12.19;95.96
51147;BME280;37207;53.060;18.726;2022-10-31T14:32:49;101200.75;;;12.18;95.91
51147;BME280;37207;53.060;18.726;2022-10-31T14:35:17;101198.34;;;12.15;96.10
51147;BME280;37207;53.060;18.726;2022-10-31T14:45:24;101188.77;;;12.14;96.23
51147;BME280;37207;53.060;18.726;2022-10-31T14:52:52;101185.21;;;12.11;96.19
51147;BME280;37207;53.060;18.726;2022-10-31T14:55:19;101182.34;;;12.11;96.23
51147;BME280;37207;53.060;18.726;2022-10-31T14:58:03;101185.70;;;12.10;96.34
51147;BME280;37207;53.060;18.726;2022-10-31T15:00:32;101183.43;;;12.10;96.38
51147;BME280;37207;53.060;18.726;2022-10-31T15:03:16;101183.33;;;12.10;96.52
51147;BME280;37207;53.060;18.726;2022-10-31T15:05:46;101184.63;;;12.09;96.46
51147;BME280;37207;53.060;18.726;2022-10-31T15:08:29;101186.92;;;12.08;96.40
51147;BME280;37207;53.060;18.726;2022-10-31T15:10:56;101184.54;;;12.07;96.33
51147;BME280;37207;53.060;18.726;2022-10-31T15:13:22;101189.71;;;12.06;96.46
51147;BME280;37207;53.060;18.726;2022-10-31T15:15:52;101188.89;;;12.05;96.40
51147;BME280;37207;53.060;18.726;2022-10-31T15:18:21;101192.03;;;12.03;96.48
51147;BME280;37207;53.060;18.726;2022-10-31T15:20:49;101195.88;;;12.01;96.46